Time;durP1;ratioP1;P1;durP2;ratioP2;P2;SDS_P1;SDS_P2;PMS_P1;PMS_P2;Temp;Humidity;BMP_temperature;BMP_pressure;BME280_temperature;BME280_humidity;BME280_pressure;Samples;Min_cycle;Max_cycle;Signal;HPM_P1;HPM_P2
2024/03/04 00:00:37;;;;;;;10.50;5.63;;;;;;;5.52;100.00;97453.22;5007848;28;20024;-81
2024/03/04 00:03:03;;;;;;;12.95;7.63;;;;;;;5.63;100.00;97466.88;5006796;28;20018;-81
2024/03/04 00:05:30;;;;;;;14.45;7.55;;;;;;;5.96;100.00;97494.78;5007294;28;20057;-81
2024/03/04 00:07:56;;;;;;;16.88;8.45;;;;;;;5.89;100.00;97487.53;5014314;28;20347;-80
2024/03/04 00:10:23;;;;;;;15.27;7.18;;;;;;;5.95;100.00;97501.16;5027574;28;20022;-81
2024/03/04 00:12:48;;;;;;;12.40;6.00;;;;;;;5.92;100.00;97495.19;5024636;28;20025;-80
2024/03/04 00:15:13;;;;;;;13.93;6.35;;;;;;;5.85;100.00;97502.38;5011745;28;20045;-81
2024/03/04 00:17:40;;;;;;;9.77;5.25;;;;;;;5.86;100.00;97512.06;5008326;28;20268;-81
2024/03/04 00:20:09;;;;;;;12.02;5.25;;;;;;;5.81;100.00;97516.41;4985886;28;20317;-81
2024/03/04 00:22:37;;;;;;;10.30;5.65;;;;;;;5.78;100.00;97520.34;5009387;28;20044;-81
2024/03/04 00:25:06;;;;;;;10.95;5.80;;;;;;;5.74;100.00;97512.88;5009504;28;20029;-81
2024/03/04 00:27:32;;;;;;;;;;;;;;;5.80;100.00;97526.31;5014840;28;20029;-81
2024/03/04 00:29:58;;;;;;;15.52;6.68;;;;;;;5.72;100.00;97521.97;5028938;28;19991;-81
2024/03/04 00:32:23;;;;;;;12.13;5.38;;;;;;;5.72;100.00;97518.47;5013696;28;20431;-81
2024/03/04 00:34:48;;;;;;;11.13;5.80;;;;;;;5.75;100.00;97528.78;5005759;28;20375;-80
2024/03/04 00:37:13;;;;;;;13.52;6.28;;;;;;;5.77;100.00;97528.59;5015046;28;20213;-81
2024/03/04 00:39:40;;;;;;;17.17;7.38;;;;;;;5.78;100.00;97528.38;5026418;28;20037;-81
2024/03/04 00:42:06;;;;;;;15.27;7.38;;;;;;;5.76;100.00;97532.31;5014002;28;20021;-81
2024/03/04 00:44:32;;;;;;;21.23;9.40;;;;;;;5.90;100.00;97553.59;5011702;28;20025;-81
2024/03/04 00:46:57;;;;;;;22.13;9.25;;;;;;;5.88;100.00;97536.03;5020929;28;20034;-81
2024/03/04 00:49:22;;;;;;;19.17;9.82;;;;;;;5.87;100.00;97531.72;5010348;28;20040;-81
2024/03/04 00:51:47;;;;;;;18.25;9.57;;;;;;;5.92;100.00;97554.22;4999148;28;20036;-81
2024/03/04 00:54:13;;;;;;;16.48;7.72;;;;;;;5.92;100.00;97556.91;5005811;28;20021;-81
2024/03/04 00:56:38;;;;;;;13.18;6.65;;;;;;;5.76;100.00;97543.03;5010752;28;20032;-81
2024/03/04 00:59:04;;;;;;;13.52;6.25;;;;;;;5.74;100.00;97545.09;5004881;28;20018;-81
2024/03/04 01:01:29;;;;;;;11.40;5.07;;;;;;;5.71;100.00;97552.53;5003803;28;20029;-81
2024/03/04 01:03:54;;;;;;;10.48;5.30;;;;;;;5.73;100.00;97565.75;5006894;28;20076;-81
2024/03/04 01:06:20;;;;;;;10.50;5.57;;;;;;;5.73;100.00;97571.09;4999363;28;20022;-81
2024/03/04 01:08:45;;;;;;;8.07;4.95;;;;;;;5.67;100.00;97570.06;5005631;28;20160;-81
2024/03/04 01:11:10;;;;;;;11.25;5.75;;;;;;;5.59;100.00;97566.75;5014123;28;20033;-81
2024/03/04 01:13:37;;;;;;;12.55;7.03;;;;;;;5.57;100.00;97576.84;5005219;28;20025;-81
2024/03/04 01:16:03;;;;;;;13.10;7.30;;;;;;;5.47;100.00;97572.66;5006033;28;20021;-81
2024/03/04 01:18:29;;;;;;;18.70;7.90;;;;;;;5.53;100.00;97580.94;5019657;28;20428;-80
2024/03/04 01:20:54;;;;;;;18.45;9.80;;;;;;;5.59;100.00;97590.88;5015775;28;20032;-80
2024/03/04 01:23:19;;;;;;;18.63;9.10;;;;;;;5.50;100.00;97574.13;5015827;28;20022;-80
2024/03/04 01:25:45;;;;;;;19.80;10.10;;;;;;;5.73;100.00;97606.00;5019370;28;20044;-80
2024/03/04 01:28:11;;;;;;;23.70;11.27;;;;;;;5.70;100.00;97606.41;5019698;28;20064;-80
2024/03/04 01:30:37;;;;;;;22.08;11.20;;;;;;;5.85;100.00;97614.28;5021765;28;20013;-81
2024/03/04 01:33:06;;;;;;;22.27;10.95;;;;;;;5.87;100.00;97613.06;5014052;28;20168;-82
2024/03/04 01:35:32;;;;;;;19.67;11.00;;;;;;;5.86;100.00;97619.44;5013055;28;20026;-81
2024/03/04 01:37:58;;;;;;;21.17;10.40;;;;;;;5.84;100.00;97608.09;5013489;28;20213;-81
2024/03/04 01:40:24;;;;;;;19.77;10.15;;;;;;;5.84;100.00;97626.91;5015124;28;20056;-81
2024/03/04 01:42:50;;;;;;;20.83;10.30;;;;;;;5.76;100.00;97627.06;5019443;28;20056;-80
2024/03/04 01:45:25;;;;;;;20.15;11.55;;;;;;;5.72;100.00;97625.81;5033529;28;20026;-81
2024/03/04 01:47:57;;;;;;;20.80;10.32;;;;;;;5.68;100.00;97627.22;5014399;28;20037;-81
2024/03/04 01:50:26;;;;;;;22.45;10.50;;;;;;;5.69;100.00;97632.41;5008125;28;20029;-81
2024/03/04 01:52:54;;;;;;;18.75;9.40;;;;;;;5.47;100.00;97622.81;5010831;28;20233;-81
2024/03/04 01:55:20;;;;;;;22.25;11.60;;;;;;;5.64;100.00;97647.47;5013049;28;20252;-81
2024/03/04 01:57:48;;;;;;;23.60;11.38;;;;;;;5.78;100.00;97662.56;5027295;28;20037;-81
2024/03/04 02:00:16;;;;;;;21.88;11.25;;;;;;;5.74;100.00;97655.97;5025501;28;20295;-81
2024/03/04 02:02:42;;;;;;;26.65;11.65;;;;;;;5.77;100.00;97660.09;5007870;28;20029;-81
2024/03/04 02:05:09;;;;;;;20.75;10.93;;;;;;;5.82;100.00;97669.22;5011706;28;20320;-81
2024/03/04 02:07:39;;;;;;;21.48;9.93;;;;;;;5.91;100.00;97688.63;5014536;28;20029;-81
2024/03/04 02:10:11;;;;;;;19.60;9.75;;;;;;;5.64;100.00;97656.34;5014338;28;20225;-82
2024/03/04 02:12:37;;;;;;;21.40;11.20;;;;;;;5.66;100.00;97664.19;5014128;28;20236;-80
2024/03/04 02:15:03;;;;;;;20.40;10.32;;;;;;;5.58;100.00;97654.47;5010466;28;20018;-81
2024/03/04 02:17:29;;;;;;;24.95;10.55;;;;;;;5.71;100.00;97684.03;5007781;28;20029;-81
2024/03/04 02:20:04;;;;;;;26.20;11.45;;;;;;;5.80;100.00;97682.00;5015695;28;20040;-81
2024/03/04 02:22:29;;;;;;;27.15;10.65;;;;;;;5.85;100.00;97690.28;5012958;28;20025;-81
2024/03/04 02:24:55;;;;;;;20.45;10.73;;;;;;;5.78;100.00;97673.31;5025511;28;20049;-81
2024/03/04 02:27:23;;;;;;;20.15;10.23;;;;;;;5.83;100.00;97692.31;5024826;28;20080;-81
2024/03/04 02:29:48;;;;;;;23.23;10.75;;;;;;;5.68;100.00;97671.00;5005818;28;20048;-81
2024/03/04 02:32:17;;;;;;;20.42;10.32;;;;;;;5.79;100.00;97680.34;5010562;28;20025;-81
2024/03/04 02:34:45;;;;;;;19.27;10.52;;;;;;;5.83;100.00;97678.91;5021936;28;20022;-81
2024/03/04 02:37:11;;;;;;;19.50;10.50;;;;;;;5.78;100.00;97667.13;5012640;28;20029;-81
2024/03/04 02:39:37;;;;;;;20.13;10.45;;;;;;;6.00;100.00;97694.69;5007958;28;20104;-81
2024/03/04 02:42:03;;;;;;;20.95;10.13;;;;;;;5.88;100.00;97671.06;5012764;28;20021;-81
2024/03/04 02:44:30;;;;;;;20.20;10.70;;;;;;;6.10;100.00;97695.13;5009400;28;20026;-81
2024/03/04 02:46:56;;;;;;;19.10;9.98;;;;;;;6.08;100.00;97694.53;5014398;28;20072;-81
2024/03/04 02:49:21;;;;;;;27.55;9.95;;;;;;;6.20;100.00;97713.56;5009833;28;20257;-81
2024/03/04 02:51:46;;;;;;;22.95;9.70;;;;;;;6.00;100.00;97692.00;5007369;28;20026;-81
2024/03/04 02:54:12;;;;;;;20.08;10.70;;;;;;;6.11;100.00;97702.16;5009974;28;20085;-81
2024/03/04 02:56:38;;;;;;;20.65;9.85;;;;;;;6.17;100.00;97712.09;5011723;28;20030;-81
2024/03/04 02:59:03;;;;;;;18.83;9.98;;;;;;;6.19;100.00;97717.28;5008414;28;20535;-81
2024/03/04 03:01:28;;;;;;;20.70;10.00;;;;;;;6.24;100.00;97720.19;5008494;28;20064;-80
2024/03/04 03:03:54;;;;;;;17.75;9.75;;;;;;;6.25;100.00;97733.41;5030123;28;20025;-81
2024/03/04 03:06:20;;;;;;;19.38;9.98;;;;;;;6.25;100.00;97732.56;5009193;28;20032;-81
2024/03/04 03:08:49;;;;;;;22.92;10.70;;;;;;;6.36;100.00;97737.34;5029270;28;20033;-81
2024/03/04 03:11:17;;;;;;;20.45;10.48;;;;;;;6.34;100.00;97724.13;4994059;28;20152;-81
2024/03/04 03:13:44;;;;;;;25.47;10.50;;;;;;;6.54;100.00;97744.84;5026838;28;20026;-81
2024/03/04 03:16:23;;;;;;;18.02;9.85;;;;;;;6.62;100.00;97747.31;5006703;28;20025;-81
2024/03/04 03:18:49;;;;;;;;;;;;;;;6.73;100.00;97746.75;5008080;28;20030;-81
2024/03/04 03:21:15;;;;;;;18.98;9.50;;;;;;;6.69;100.00;97750.03;5009094;28;19940;-81
2024/03/04 03:23:42;;;;;;;18.92;9.70;;;;;;;6.83;100.00;97762.47;5008325;28;20060;-81
2024/03/04 03:26:09;;;;;;;20.55;10.25;;;;;;;6.72;100.00;97747.75;5008153;28;20105;-81
2024/03/04 03:28:37;;;;;;;19.38;9.63;;;;;;;6.88;100.00;97764.53;5010618;28;20324;-83
2024/03/04 03:31:03;;;;;;;18.88;10.15;;;;;;;6.94;100.00;97769.06;5003173;28;20321;-81
2024/03/04 03:33:28;;;;;;;17.15;9.77;;;;;;;6.97;100.00;97768.69;5017724;28;20037;-82
2024/03/04 03:35:53;;;;;;;19.13;9.73;;;;;;;6.80;100.00;97739.50;5010736;28;20041;-81
2024/03/04 03:38:18;;;;;;;18.67;9.77;;;;;;;7.00;100.00;97779.03;5008110;28;20021;-82
2024/03/04 03:40:45;;;;;;;17.50;10.23;;;;;;;6.99;100.00;97778.19;5003777;28;20072;-81
2024/03/04 03:43:10;;;;;;;23.48;10.73;;;;;;;6.95;100.00;97765.38;5006976;28;20022;-81
2024/03/04 03:45:37;;;;;;;19.35;9.77;;;;;;;7.00;100.00;97776.34;5009836;28;20029;-81
2024/03/04 03:48:03;;;;;;;19.80;10.52;;;;;;;7.08;100.00;97770.75;5006411;28;20026;-81
2024/03/04 03:50:28;;;;;;;19.75;10.30;;;;;;;7.06;100.00;97772.81;5010289;28;20071;-81
2024/03/04 03:52:54;;;;;;;17.10;10.02;;;;;;;7.12;100.00;97782.75;5013320;28;20033;-81
2024/03/04 03:55:19;;;;;;;19.52;9.68;;;;;;;7.03;100.00;97768.69;5010684;28;20028;-81
2024/03/04 03:57:44;;;;;;;18.02;9.35;;;;;;;6.98;100.00;97762.28;5017100;28;20329;-81
2024/03/04 04:00:10;;;;;;;21.50;10.20;;;;;;;7.12;100.00;97790.81;5011538;28;20112;-84
2024/03/04 04:02:35;;;;;;;18.88;10.40;;;;;;;7.12;100.00;97796.19;5019546;28;20041;-88
2024/03/04 04:05:01;;;;;;;19.50;10.20;;;;;;;7.11;100.00;97808.00;5010341;28;20089;-81
2024/03/04 04:07:26;;;;;;;22.40;10.82;;;;;;;7.18;100.00;97811.53;5036615;23;20039;-53
2024/03/04 04:09:52;;;;;;;17.95;9.50;;;;;;;7.18;100.00;97816.91;5098406;28;20356;-53
2024/03/04 04:12:17;;;;;;;23.27;11.18;;;;;;;7.23;100.00;97817.13;5091887;28;20072;-53
2024/03/04 04:14:43;;;;;;;21.10;11.27;;;;;;;7.42;100.00;97822.72;5095198;28;20031;-53
2024/03/04 04:17:08;;;;;;;24.70;11.55;;;;;;;7.46;100.00;97824.75;5089761;28;20024;-54
2024/03/04 04:19:34;;;;;;;23.35;11.32;;;;;;;7.44;100.00;97826.00;5091486;28;20391;-53
2024/03/04 04:22:02;;;;;;;22.52;11.48;;;;;;;7.43;100.00;97833.25;5088810;28;20032;-53
2024/03/04 04:24:28;;;;;;;23.40;12.48;;;;;;;7.57;100.00;97827.84;5097577;28;20032;-53
2024/03/04 04:26:54;;;;;;;22.00;12.13;;;;;;;7.58;100.00;97833.06;5092784;28;20131;-53
2024/03/04 04:29:19;;;;;;;25.20;12.85;;;;;;;7.58;100.00;97835.75;5096146;28;20476;-53
2024/03/04 04:31:44;;;;;;;25.60;14.00;;;;;;;7.58;100.00;97843.81;5087109;28;20040;-53
2024/03/04 04:34:11;;;;;;;28.10;13.70;;;;;;;7.62;100.00;97841.53;5098419;28;20032;-53
2024/03/04 04:36:36;;;;;;;29.98;14.43;;;;;;;7.78;100.00;97845.66;5091398;28;20028;-53
2024/03/04 04:39:02;;;;;;;26.75;14.73;;;;;;;7.82;100.00;97857.69;5080781;28;20028;-53
2024/03/04 04:41:27;;;;;;;28.27;14.02;;;;;;;7.81;100.00;97856.84;5095951;28;20028;-53
2024/03/04 04:43:52;;;;;;;30.42;15.02;;;;;;;7.81;100.00;97854.16;5098467;28;20458;-53
2024/03/04 04:46:18;;;;;;;34.45;16.38;;;;;;;7.93;100.00;97865.09;5091612;28;20175;-53
2024/03/04 04:48:43;;;;;;;34.42;16.88;;;;;;;7.95;100.00;97865.72;5087980;28;20109;-53
2024/03/04 04:51:09;;;;;;;35.72;16.92;;;;;;;7.94;100.00;97874.00;5092484;28;20058;-55
2024/03/04 04:53:34;;;;;;;29.75;16.38;;;;;;;7.98;100.00;97876.09;5094587;28;20023;-53
2024/03/04 04:56:00;;;;;;;31.70;16.73;;;;;;;8.10;100.00;97878.97;5094533;28;20027;-53
2024/03/04 04:58:26;;;;;;;35.55;17.48;;;;;;;8.12;100.00;97876.88;5090130;28;20035;-52
2024/03/04 05:00:54;;;;;;;31.77;16.42;;;;;;;8.15;100.00;97887.25;5089416;28;20024;-52
2024/03/04 05:03:19;;;;;;;33.28;16.83;;;;;;;8.18;100.00;97884.13;5098293;28;20042;-52
2024/03/04 05:05:45;;;;;;;33.28;17.40;;;;;;;8.17;100.00;97887.84;5096614;28;20028;-52
2024/03/04 05:08:10;;;;;;;36.30;18.30;;;;;;;8.20;100.00;97894.69;5099546;28;20116;-52
2024/03/04 05:10:39;;;;;;;34.95;18.52;;;;;;;8.26;100.00;97897.38;5094794;28;20151;-52
2024/03/04 05:13:05;;;;;;;35.15;18.27;;;;;;;8.24;100.00;97904.03;5096173;28;20495;-52
2024/03/04 05:15:30;;;;;;;38.85;18.52;;;;;;;8.30;100.00;97905.88;5097455;28;20601;-52
2024/03/04 05:17:57;;;;;;;40.15;18.27;;;;;;;8.31;100.00;97905.66;5096590;28;20044;-52
2024/03/04 05:20:23;;;;;;;37.25;17.90;;;;;;;8.21;100.00;97899.06;5116328;22;20048;-76
2024/03/04 05:22:48;;;;;;;38.03;19.73;;;;;;;8.23;100.00;97900.50;5106140;28;20026;-76
2024/03/04 05:25:14;;;;;;;40.53;18.80;;;;;;;8.08;100.00;97895.34;5112559;28;20024;-75
2024/03/04 05:27:39;;;;;;;34.45;19.02;;;;;;;8.24;100.00;97914.78;5083827;28;20047;-80
2024/03/04 05:30:05;;;;;;;36.20;18.52;;;;;;;8.10;100.00;97890.56;5086787;28;20141;-81
2024/03/04 05:32:30;;;;;;;38.17;18.45;;;;;;;8.09;100.00;97912.31;5111219;28;20030;-83
2024/03/04 05:34:55;;;;;;;41.13;18.90;;;;;;;8.18;100.00;97921.03;5089624;28;20273;-82
2024/03/04 05:37:21;;;;;;;38.55;18.83;;;;;;;8.17;100.00;97924.75;5109630;28;20031;-83
2024/03/04 05:39:46;;;;;;;35.58;18.15;;;;;;;8.19;100.00;97923.50;5085827;28;20027;-77
2024/03/04 05:42:13;;;;;;;37.08;18.92;;;;;;;8.12;100.00;97910.06;5081276;28;20028;-76
2024/03/04 05:44:38;;;;;;;39.25;19.02;;;;;;;8.11;100.00;97921.84;5104518;28;20334;-76
2024/03/04 05:47:04;;;;;;;37.67;19.42;;;;;;;8.18;100.00;97942.59;5084858;28;20020;-75
2024/03/04 05:49:29;;;;;;;39.85;18.90;;;;;;;8.26;100.00;97945.88;5082882;28;20296;-75
2024/03/04 05:51:54;;;;;;;37.42;19.15;;;;;;;8.20;100.00;97946.75;5085980;28;20057;-76
2024/03/04 05:54:20;;;;;;;37.53;18.25;;;;;;;8.29;100.00;97960.81;5083594;28;20361;-69
2024/03/04 05:56:48;;;;;;;42.30;18.77;;;;;;;8.29;100.00;97944.63;5103199;28;20141;-73
2024/03/04 05:59:14;;;;;;;38.40;18.67;;;;;;;8.26;100.00;97947.75;5103580;28;20086;-73
2024/03/04 06:01:39;;;;;;;39.80;19.45;;;;;;;8.34;100.00;97964.53;5100555;28;20328;-74
2024/03/04 06:04:05;;;;;;;36.60;18.13;;;;;;;8.38;100.00;97964.09;5106644;28;20350;-76
2024/03/04 06:06:34;;;;;;;41.00;18.67;;;;;;;8.35;100.00;97976.94;5103729;28;20020;-74
2024/03/04 06:09:08;;;;;;;36.42;18.23;;;;;;;8.22;100.00;97959.97;5105852;28;20058;-75
2024/03/04 06:11:34;;;;;;;38.95;19.25;;;;;;;8.34;100.00;97977.19;5102965;28;20057;-73
2024/03/04 06:13:59;;;;;;;40.67;19.77;;;;;;;8.29;100.00;97971.59;5100848;28;20024;-76
2024/03/04 06:16:24;;;;;;;38.70;18.75;;;;;;;8.35;100.00;97976.13;5102004;28;20205;-73
2024/03/04 06:18:50;;;;;;;46.25;19.60;;;;;;;8.35;100.00;97984.22;5104938;28;20057;-78
2024/03/04 06:21:16;;;;;;;37.17;19.10;;;;;;;8.38;100.00;97978.41;5113500;28;20028;-80
2024/03/04 06:23:41;;;;;;;39.00;18.65;;;;;;;8.27;100.00;97969.09;5096194;28;20061;-75
2024/03/04 06:26:10;;;;;;;40.55;19.23;;;;;;;8.20;100.00;97951.28;5106076;28;20046;-75
2024/03/04 06:28:37;;;;;;;41.95;19.50;;;;;;;8.26;100.00;97964.75;5102126;28;20022;-81
2024/03/04 06:31:03;;;;;;;42.95;19.98;;;;;;;8.42;100.00;97985.06;5098814;28;20016;-84
2024/03/04 06:33:28;;;;;;;37.28;18.45;;;;;;;8.26;100.00;97955.84;5115811;28;20189;-82
2024/03/04 06:35:54;;;;;;;41.88;19.77;;;;;;;8.31;100.00;97974.91;5089101;28;20019;-84
2024/03/04 06:38:20;;;;;;;46.63;21.92;;;;;;;8.31;100.00;97980.31;5089589;28;20380;-83
2024/03/04 06:40:45;;;;;;;45.42;21.65;;;;;;;8.35;100.00;98001.22;5085780;28;20028;-84
2024/03/04 06:43:10;;;;;;;44.55;20.90;;;;;;;8.33;100.00;97989.84;5083646;28;20024;-80
2024/03/04 06:45:36;;;;;;;43.42;21.05;;;;;;;8.33;100.00;97988.97;5088925;28;20024;-83
2024/03/04 06:48:03;;;;;;;47.03;21.50;;;;;;;8.34;100.00;97991.47;5080809;28;20078;-84
2024/03/04 06:50:37;;;;;;;47.47;21.58;;;;;;;8.40;100.00;97997.94;5079448;28;20030;-84
2024/03/04 06:53:03;;;;;;;48.67;21.92;;;;;;;8.35;100.00;97997.69;5079450;28;20023;-84
2024/03/04 06:55:28;;;;;;;46.30;21.00;;;;;;;8.40;100.00;97997.09;5085687;28;20351;-84
2024/03/04 06:57:53;;;;;;;56.45;22.35;;;;;;;8.49;100.00;98002.06;5097638;28;20020;-84
2024/03/04 07:00:21;;;;;;;48.90;22.67;;;;;;;8.52;100.00;98008.91;5089689;28;20016;-78
2024/03/04 07:02:49;;;;;;;47.60;22.20;;;;;;;8.49;100.00;98009.34;5092195;28;20043;-79
2024/03/04 07:05:19;;;;;;;47.35;21.98;;;;;;;8.63;100.00;98029.03;5100766;28;20079;-79
2024/03/04 07:07:45;;;;;;;47.10;20.25;;;;;;;8.54;100.00;98018.47;5079722;28;20234;-84
2024/03/04 07:10:13;;;;;;;46.28;21.42;;;;;;;8.58;100.00;98035.03;5086020;28;20019;-79
2024/03/04 07:12:38;;;;;;;47.60;21.10;;;;;;;8.56;100.00;98029.00;5085077;28;20323;-82
2024/03/04 07:15:04;;;;;;;46.55;21.48;;;;;;;8.60;100.00;98035.66;5082597;28;20027;-80
2024/03/04 07:17:30;;;;;;;46.83;22.55;;;;;;;8.52;100.00;98031.31;5085868;28;20055;-77
2024/03/04 07:19:55;;;;;;;59.70;23.98;;;;;;;8.59;100.00;98038.56;5103026;28;20031;-77
2024/03/04 07:22:21;;;;;;;48.92;22.45;;;;;;;8.61;100.00;98049.97;5114258;28;20311;-77
2024/03/04 07:24:46;;;;;;;54.63;22.88;;;;;;;8.37;100.00;98025.28;5091938;28;20088;-81
2024/03/04 07:27:11;;;;;;;55.38;22.52;;;;;;;8.42;100.00;98036.28;5090997;28;20020;-77
2024/03/04 07:29:37;;;;;;;50.58;22.52;;;;;;;8.52;100.00;98049.34;5086875;28;20019;-74
2024/03/04 07:32:02;;;;;;;49.53;23.00;;;;;;;8.53;100.00;98049.13;5091831;28;20020;-74
2024/03/04 07:34:27;;;;;;;55.95;23.45;;;;;;;8.50;100.00;98044.16;5083915;28;20064;-73
2024/03/04 07:36:53;;;;;;;54.88;23.50;;;;;;;8.60;100.00;98059.09;5083479;28;20011;-73
2024/03/04 07:39:18;;;;;;;55.85;23.42;;;;;;;8.63;100.00;98067.59;5084726;28;20125;-76
2024/03/04 07:41:44;;;;;;;47.97;22.98;;;;;;;8.49;100.00;98030.91;5087056;28;20019;-75
2024/03/04 07:44:10;;;;;;;49.22;21.88;;;;;;;8.52;100.00;98046.66;5087631;28;20026;-75
2024/03/04 07:46:36;;;;;;;59.60;23.25;;;;;;;8.64;100.00;98065.72;5102158;28;20296;-76
2024/03/04 07:49:01;;;;;;;56.55;23.08;;;;;;;8.64;100.00;98058.44;5078841;28;20059;-78
2024/03/04 07:51:26;;;;;;;53.53;22.65;;;;;;;8.66;100.00;98063.66;5101820;28;20046;-76
2024/03/04 07:53:52;;;;;;;54.83;23.80;;;;;;;8.74;100.00;98071.50;5100900;28;20192;-74
2024/03/04 07:56:17;;;;;;;56.90;23.30;;;;;;;8.61;100.00;98052.66;5102046;28;20095;-75
2024/03/04 07:58:42;;;;;;;55.65;22.80;;;;;;;8.52;100.00;98033.19;5082964;28;20016;-72
2024/03/04 08:01:08;;;;;;;51.97;22.63;;;;;;;8.74;100.00;98074.22;5102500;28;20036;-73
2024/03/04 08:03:35;;;;;;;52.85;23.13;;;;;;;8.80;100.00;98065.28;5103701;28;20024;-74
2024/03/04 08:06:00;;;;;;;54.42;23.67;;;;;;;8.67;100.00;98054.50;5081690;28;20204;-74
2024/03/04 08:08:26;;;;;;;52.40;23.95;;;;;;;8.82;100.00;98079.38;5097962;28;20021;-81
2024/03/04 08:10:51;;;;;;;51.97;21.98;;;;;;;8.86;100.00;98077.13;5084758;28;20031;-77
2024/03/04 08:13:17;;;;;;;57.47;22.55;;;;;;;8.85;100.00;98076.25;5086693;28;20023;-77
2024/03/04 08:15:42;;;;;;;57.25;23.27;;;;;;;8.66;100.00;98055.56;5089361;28;20245;-78
2024/03/04 08:18:09;;;;;;;53.03;22.60;;;;;;;8.64;100.00;98030.66;5085119;28;20031;-81
2024/03/04 08:20:35;;;;;;;56.38;23.17;;;;;;;8.98;100.00;98097.81;5085215;28;20167;-74
2024/03/04 08:23:01;;;;;;;60.55;23.75;;;;;;;8.85;100.00;98086.22;5089897;28;20099;-73
2024/03/04 08:25:26;;;;;;;59.47;23.88;;;;;;;8.87;100.00;98079.59;5105297;28;20252;-78
2024/03/04 08:27:52;;;;;;;56.45;24.65;;;;;;;8.93;100.00;98078.75;5090329;28;20027;-76
2024/03/04 08:30:17;;;;;;;58.63;22.92;;;;;;;8.96;100.00;98085.56;5081355;28;20012;-76
2024/03/04 08:32:44;;;;;;;60.25;24.20;;;;;;;8.82;100.00;98073.16;5104007;28;20214;-77
2024/03/04 08:35:09;;;;;;;58.10;23.77;;;;;;;9.05;100.00;98105.09;5082735;28;20058;-77
2024/03/04 08:37:35;;;;;;;70.68;25.88;;;;;;;8.98;100.00;98105.09;5082454;28;20207;-76
2024/03/04 08:40:03;;;;;;;57.03;24.58;;;;;;;8.88;100.00;98094.75;5086571;28;20016;-74
2024/03/04 08:42:28;;;;;;;62.35;24.30;;;;;;;9.01;100.00;98120.84;5094314;28;20043;-78
2024/03/04 08:44:54;;;;;;;64.50;24.50;;;;;;;8.83;100.00;98109.88;5088950;28;20057;-78
2024/03/04 08:47:19;;;;;;;63.83;24.00;;;;;;;8.92;100.00;98119.44;5082980;28;20021;-77
2024/03/04 08:49:44;;;;;;;61.88;25.35;;;;;;;8.91;100.00;98125.88;5082340;28;20030;-79
2024/03/04 08:52:10;;;;;;;68.03;24.83;;;;;;;8.80;100.00;98089.53;5084168;28;20016;-79
2024/03/04 08:54:35;;;;;;;60.00;24.60;;;;;;;9.15;100.00;98135.16;5087769;28;20064;-79
2024/03/04 08:57:00;;;;;;;61.90;24.00;;;;;;;9.12;100.00;98135.59;5081041;28;20042;-79
2024/03/04 08:59:25;;;;;;;65.32;24.35;;;;;;;9.13;100.00;98145.34;5083159;28;20084;-74
2024/03/04 09:01:52;;;;;;;65.43;24.52;;;;;;;9.11;100.00;98132.03;5101687;28;20019;-74
2024/03/04 09:04:17;;;;;;;61.90;25.17;;;;;;;9.17;100.00;98141.19;5086233;28;20024;-81
2024/03/04 09:06:42;;;;;;;57.83;23.58;;;;;;;9.20;100.00;98154.25;5087714;28;20021;-83
2024/03/04 09:09:09;;;;;;;59.53;23.17;;;;;;;9.05;100.00;98142.88;5108701;28;20339;-75
2024/03/04 09:11:34;;;;;;;61.22;24.75;;;;;;;9.12;100.00;98152.63;5095750;28;20027;-74
2024/03/04 09:14:00;;;;;;;67.28;25.30;;;;;;;9.14;100.00;98142.44;5099542;28;20250;-81
2024/03/04 09:16:25;;;;;;;65.10;24.70;;;;;;;9.18;100.00;98149.06;5084922;28;20024;-83
2024/03/04 09:18:51;;;;;;;61.35;24.67;;;;;;;9.24;100.00;98150.09;5084307;28;20020;-81
2024/03/04 09:21:16;;;;;;;58.80;25.75;;;;;;;9.31;100.00;98152.78;5099893;28;20016;-82
2024/03/04 09:23:41;;;;;;;65.60;24.98;;;;;;;9.37;100.00;98133.84;5078890;28;20018;-82
2024/03/04 09:26:10;;;;;;;63.03;24.83;;;;;;;9.64;100.00;98172.44;5085571;28;20070;-72
2024/03/04 09:28:36;;;;;;;55.83;19.20;;;;;;;9.61;100.00;98161.19;5101695;28;20331;-71
2024/03/04 09:31:01;;;;;;;65.57;24.92;;;;;;;9.65;100.00;98157.03;5104503;28;20028;-71
2024/03/04 09:33:27;;;;;;;67.50;25.88;;;;;;;9.60;100.00;98151.44;5101805;28;20347;-70
2024/03/04 09:35:53;;;;;;;66.15;25.52;;;;;;;9.66;100.00;98167.63;5101240;28;20386;-71
2024/03/04 09:38:18;;;;;;;59.38;23.15;;;;;;;9.78;100.00;98172.38;5088162;28;20028;-72
2024/03/04 09:40:51;;;;;;;61.00;24.55;;;;;;;9.77;100.00;98168.00;5103500;28;20039;-71
2024/03/04 09:43:19;;;;;;;65.53;23.92;;;;;;;9.70;100.00;98170.75;5088240;28;20235;-72
2024/03/04 09:45:44;;;;;;;67.60;23.55;;;;;;;9.79;100.00;98172.16;5106861;28;20020;-71
2024/03/04 09:48:11;;;;;;;59.15;23.65;;;;;;;9.79;100.00;98168.63;5103931;28;20069;-72
2024/03/04 09:50:37;;;;;;;60.00;22.98;;;;;;;9.80;100.00;98171.13;5109712;28;20028;-72
2024/03/04 09:53:02;;;;;;;59.17;22.73;;;;;;;9.76;100.00;98155.53;5105456;28;20026;-72
2024/03/04 09:55:27;;;;;;;73.07;24.45;;;;;;;9.74;100.00;98165.72;5096501;28;20231;-71
2024/03/04 09:57:54;;;;;;;63.35;23.67;;;;;;;9.70;100.00;98156.41;5105851;28;20405;-72
2024/03/04 10:00:24;;;;;;;60.75;22.83;;;;;;;9.82;100.00;98171.75;5088616;28;20073;-72
2024/03/04 10:02:49;;;;;;;65.68;23.25;;;;;;;9.97;100.00;98174.16;5087799;28;20027;-75
2024/03/04 10:05:15;;;;;;;59.80;22.05;;;;;;;9.99;100.00;98153.16;5105403;28;20024;-72
2024/03/04 10:07:40;;;;;;;62.10;23.52;;;;;;;10.21;100.00;98164.47;5088548;28;20117;-73
2024/03/04 10:10:10;;;;;;;58.75;22.90;;;;;;;10.26;100.00;98167.34;5103292;28;20036;-72
2024/03/04 10:12:36;;;;;;;53.47;21.05;;;;;;;10.46;100.00;98166.44;5098364;28;20286;-72
2024/03/04 10:15:06;;;;;;;65.15;23.63;;;;;;;10.48;100.00;98164.34;5087469;28;20055;-73
2024/03/04 10:17:32;;;;;;;57.63;23.33;;;;;;;10.56;100.00;98168.63;5091211;28;20065;-72
2024/03/04 10:20:02;;;;;;;53.50;21.90;;;;;;;10.43;100.00;98146.06;5104188;28;20019;-73
2024/03/04 10:22:34;;;;;;;57.45;22.38;;;;;;;10.38;100.00;98170.22;5105322;28;20034;-73
2024/03/04 10:25:04;;;;;;;56.00;22.05;;;;;;;10.51;100.00;98169.31;5087000;28;20380;-72
2024/03/04 10:27:33;;;;;;;54.67;21.30;;;;;;;10.64;100.00;98160.28;5097405;28;20028;-70
2024/03/04 10:30:15;;;;;;;53.55;21.33;;;;;;;10.65;100.00;98170.03;5106299;28;20095;-70
2024/03/04 10:33:05;;;;;;;57.40;20.73;;;;;;;10.69;100.00;98176.69;5110650;28;20024;-72
2024/03/04 10:35:31;;;;;;;48.85;19.73;;;;;;;10.69;100.00;98163.16;5087945;28;20050;-72
2024/03/04 10:38:02;;;;;;;48.75;21.33;;;;;;;10.79;100.00;98163.47;5087289;28;20036;-73
2024/03/04 10:40:28;;;;;;;44.10;20.80;;;;;;;10.83;100.00;98162.00;5088040;28;20020;-71
2024/03/04 10:42:56;;;;;;;50.15;22.17;;;;;;;10.90;100.00;98167.38;5091596;28;20062;-71
2024/03/04 10:45:22;;;;;;;47.67;20.63;;;;;;;10.71;100.00;98169.97;5106433;28;20044;-71
2024/03/04 10:47:48;;;;;;;55.47;22.55;;;;;;;10.52;100.00;98182.59;5104086;28;20022;-72
2024/03/04 10:50:17;;;;;;;48.15;22.77;;;;;;;10.56;100.00;98191.13;5101364;28;20035;-72
2024/03/04 10:52:45;;;;;;;45.50;20.27;;;;;;;10.58;100.00;98171.97;5117098;28;20327;-72
2024/03/04 10:55:14;;;;;;;49.70;22.13;;;;;;;10.35;100.00;98175.22;5107186;28;20020;-72
2024/03/04 10:57:44;;;;;;;48.22;22.38;;;;;;;10.55;100.00;98185.94;5106293;28;20097;-72
2024/03/04 11:00:17;;;;;;;47.22;21.95;;;;;;;10.37;100.00;98173.97;5105437;28;20038;-72
2024/03/04 11:03:16;;;;;;;43.67;20.60;;;;;;;10.56;100.00;98177.59;5110951;28;20047;-72
2024/03/04 11:05:48;;;;;;;50.10;22.20;;;;;;;10.53;100.00;98159.09;5105030;28;20382;-72
2024/03/04 11:08:29;;;;;;;55.05;23.58;;;;;;;10.80;100.00;98184.09;5103510;28;20035;-72
2024/03/04 11:11:06;;;;;;;52.63;21.80;;;;;;;10.94;100.00;98168.56;5102688;28;20023;-72
2024/03/04 11:13:35;;;;;;;50.40;22.17;;;;;;;11.07;100.00;98179.28;5110751;28;20031;-71
2024/03/04 11:16:03;;;;;;;56.45;23.02;;;;;;;11.07;100.00;98190.09;5107606;28;20043;-71